createdAt,value
2022-12-11T00:01:18.342Z,69.07
2022-12-11T00:03:48.242Z,75.13
2022-12-11T00:06:20.858Z,80.22
2022-12-11T00:08:52.471Z,51.80
2022-12-11T00:11:22.189Z,74.95
2022-12-11T00:13:50.105Z,74.70
2022-12-11T00:16:20.370Z,66.72
2022-12-11T00:18:52.465Z,64.75
2022-12-11T00:21:20.715Z,64.95
2022-12-11T00:23:48.548Z,49.05
2022-12-11T00:26:17.280Z,61.33
2022-12-11T00:28:45.962Z,66.70
2022-12-11T00:31:19.171Z,66.53
2022-12-11T00:33:50.433Z,64.07
2022-12-11T00:36:21.832Z,50.30
2022-12-11T00:38:50.399Z,64.63
2022-12-11T00:41:18.634Z,67.60
2022-12-11T00:43:47.115Z,53.90
2022-12-11T00:46:15.595Z,56.92
2022-12-11T00:48:43.668Z,53.88
2022-12-11T00:51:12.081Z,59.72
2022-12-11T00:53:40.769Z,53.75
2022-12-11T00:56:18.430Z,58.38
2022-12-11T00:58:47.341Z,66.35
2022-12-11T01:01:19.026Z,47.75
2022-12-11T01:03:47.375Z,59.40
2022-12-11T01:06:18.247Z,59.53
2022-12-11T01:08:46.818Z,57.80
2022-12-11T01:11:17.038Z,52.08
2022-12-11T01:13:45.242Z,52.75
2022-12-11T01:16:15.321Z,63.83
2022-12-11T01:18:44.592Z,47.78
2022-12-11T01:21:14.390Z,54.35
2022-12-11T01:23:42.284Z,60.75
2022-12-11T01:26:14.914Z,44.83
2022-12-11T01:28:43.382Z,43.20
2022-12-11T01:31:14.000Z,47.10
2022-12-11T01:33:42.719Z,49.75
2022-12-11T01:36:19.368Z,47.15
2022-12-11T01:38:48.945Z,43.42
2022-12-11T01:41:18.926Z,46.20
2022-12-11T01:44:15.725Z,43.38
2022-12-11T01:46:44.172Z,42.70
2022-12-11T01:49:13.601Z,48.63
2022-12-11T01:52:00.046Z,38.85
2022-12-11T01:54:28.810Z,45.30
2022-12-11T01:57:03.053Z,54.97
2022-12-11T01:59:32.304Z,56.30
2022-12-11T02:02:18.076Z,51.33
2022-12-11T02:04:46.877Z,51.85
2022-12-11T02:07:15.738Z,54.50
2022-12-11T02:09:45.780Z,60.53
2022-12-11T02:12:57.295Z,58.30
2022-12-11T02:15:31.133Z,61.20
2022-12-11T02:18:21.514Z,71.03
2022-12-11T02:20:56.135Z,67.22
2022-12-11T02:23:44.690Z,70.85
2022-12-11T02:26:12.518Z,62.22
2022-12-11T02:28:51.329Z,69.80
2022-12-11T02:31:37.641Z,72.88
2022-12-11T02:34:43.726Z,52.35
2022-12-11T02:37:17.412Z,74.90
2022-12-11T02:39:46.482Z,69.30
2022-12-11T02:42:16.800Z,73.15
2022-12-11T02:44:45.473Z,54.55
2022-12-11T02:47:14.415Z,63.40
2022-12-11T02:49:44.853Z,69.70
2022-12-11T02:52:13.868Z,70.35
2022-12-11T02:54:43.534Z,67.63
2022-12-11T02:57:19.218Z,69.88
2022-12-11T02:59:47.762Z,73.22
2022-12-11T03:02:16.776Z,74.32
2022-12-11T03:04:48.068Z,74.65
2022-12-11T03:07:20.118Z,54.45
2022-12-11T03:09:48.665Z,68.00
2022-12-11T03:12:22.156Z,83.70
2022-12-11T03:14:51.693Z,84.97
2022-12-11T03:17:23.306Z,78.40
2022-12-11T03:20:17.929Z,77.40
2022-12-11T03:23:24.870Z,79.43
2022-12-11T03:26:08.355Z,66.88
2022-12-11T03:28:45.044Z,65.88
2022-12-11T03:31:19.088Z,63.70
2022-12-11T03:33:48.790Z,67.38
2022-12-11T03:36:24.499Z,70.25
2022-12-11T03:38:56.795Z,85.70
2022-12-11T03:41:27.306Z,71.50
2022-12-11T03:43:58.904Z,70.22
2022-12-11T03:46:32.700Z,75.90
2022-12-11T03:49:06.301Z,74.05
2022-12-11T03:51:34.898Z,76.40
2022-12-11T03:54:03.020Z,69.38
2022-12-11T03:56:33.454Z,83.45
2022-12-11T03:59:01.059Z,65.32
2022-12-11T04:01:29.149Z,74.80
2022-12-11T04:03:57.479Z,74.43
2022-12-11T04:06:26.101Z,85.13
2022-12-11T04:08:54.048Z,80.07
2022-12-11T04:11:34.968Z,78.93
2022-12-11T04:14:29.358Z,69.65
2022-12-11T04:16:59.046Z,75.85
2022-12-11T04:19:45.539Z,72.60
2022-12-11T04:22:33.911Z,76.55
2022-12-11T04:25:02.572Z,67.88
2022-12-11T04:27:48.963Z,63.97
2022-12-11T04:30:20.655Z,70.70
2022-12-11T04:32:49.263Z,77.13
2022-12-11T04:35:17.182Z,84.03
2022-12-11T04:37:45.857Z,59.08
2022-12-11T04:40:16.440Z,82.20
2022-12-11T04:42:45.074Z,65.88
2022-12-11T04:45:13.852Z,54.38
2022-12-11T04:47:42.631Z,59.58
2022-12-11T04:50:12.340Z,61.15
2022-12-11T04:52:40.814Z,76.15
2022-12-11T04:55:09.710Z,67.55
2022-12-11T04:57:38.189Z,70.57
2022-12-11T05:00:08.068Z,68.65
2022-12-11T05:02:37.768Z,71.00
2022-12-11T05:05:10.322Z,48.67
2022-12-11T05:07:39.002Z,79.80
2022-12-11T05:10:07.612Z,69.65
2022-12-11T05:12:36.238Z,70.60
2022-12-11T05:15:04.888Z,65.05
2022-12-11T05:17:33.922Z,67.82
2022-12-11T05:20:01.739Z,70.28
2022-12-11T05:22:32.080Z,69.72
2022-12-11T05:24:59.818Z,71.78
2022-12-11T05:27:28.162Z,69.70
2022-12-11T05:29:59.366Z,81.07
2022-12-11T08:43:34.994Z,45.15
2022-12-11T08:46:03.276Z,47.22
2022-12-11T08:48:31.610Z,43.70
2022-12-11T08:51:02.106Z,38.28
2022-12-11T08:53:30.853Z,44.83
2022-12-11T08:56:13.466Z,40.13
2022-12-11T08:58:41.814Z,40.10
2022-12-11T09:01:12.796Z,36.80
2022-12-11T09:03:41.176Z,45.58
2022-12-11T09:06:15.055Z,32.20
2022-12-11T09:08:51.666Z,30.45
2022-12-11T09:11:26.298Z,52.75
2022-12-11T09:13:54.941Z,35.08
2022-12-11T09:16:25.554Z,51.58
2022-12-11T09:18:55.441Z,40.88
2022-12-11T09:21:26.094Z,32.60
2022-12-11T09:23:55.891Z,36.83
2022-12-11T09:26:24.672Z,32.97
2022-12-11T09:28:53.906Z,35.78
2022-12-11T09:31:30.850Z,40.75
2022-12-11T09:34:01.186Z,52.70
2022-12-11T09:36:30.104Z,43.45
2022-12-11T09:39:02.581Z,41.22
2022-12-11T09:42:11.804Z,37.05
2022-12-11T09:44:50.903Z,41.55
2022-12-11T09:47:36.424Z,30.08
2022-12-11T09:50:19.104Z,51.97
2022-12-11T09:52:47.246Z,39.78
2022-12-11T09:55:24.444Z,35.88
2022-12-11T09:58:23.774Z,35.58
2022-12-11T10:01:07.049Z,47.40
2022-12-11T10:03:44.906Z,34.38
2022-12-11T10:06:22.218Z,18.33
2022-12-11T10:09:11.650Z,48.08
2022-12-11T10:12:30.653Z,47.35
2022-12-11T10:15:11.176Z,52.40
2022-12-11T10:17:40.268Z,37.08
2022-12-11T10:20:17.449Z,14.77
2022-12-11T10:22:46.828Z,48.15
2022-12-11T10:25:25.779Z,43.17
2022-12-11T10:27:54.071Z,49.25
2022-12-11T10:30:24.720Z,93.93
2022-12-11T10:33:17.242Z,60.90
2022-12-11T10:35:54.262Z,30.13
2022-12-11T10:38:31.323Z,32.55
2022-12-11T10:41:02.307Z,33.35
2022-12-11T10:43:46.480Z,30.23
2022-12-11T10:46:18.231Z,22.92
2022-12-11T10:48:53.734Z,26.65
2022-12-11T10:51:24.667Z,34.33
2022-12-11T10:53:54.442Z,54.22
2022-12-11T10:56:28.876Z,50.00
2022-12-11T10:58:58.478Z,39.38
2022-12-11T11:01:30.032Z,31.33
2022-12-11T11:04:20.390Z,37.60
2022-12-11T11:06:49.970Z,34.63
2022-12-11T11:09:43.587Z,21.27
2022-12-11T11:12:24.825Z,31.17
2022-12-11T11:15:08.527Z,32.38
2022-12-11T11:17:54.228Z,29.17
2022-12-11T11:20:29.699Z,34.20
2022-12-11T11:23:01.451Z,30.00
2022-12-11T11:25:31.962Z,27.00
2022-12-11T11:28:05.915Z,34.70
2022-12-11T11:30:42.170Z,23.90
2022-12-11T11:33:18.986Z,24.05
2022-12-11T11:35:56.340Z,37.47
2022-12-11T11:38:38.075Z,35.85
2022-12-11T11:41:24.413Z,35.17
2022-12-11T11:43:56.072Z,44.50
2022-12-11T11:46:32.635Z,42.40
2022-12-11T11:49:11.226Z,28.42
2022-12-11T11:51:40.396Z,32.40
2022-12-11T11:54:36.058Z,41.45
2022-12-11T11:57:14.650Z,43.65
2022-12-11T11:59:52.757Z,34.22
2022-12-11T12:02:20.948Z,42.95
2022-12-11T12:04:53.490Z,38.60
2022-12-11T12:07:42.975Z,34.83
2022-12-11T12:10:19.717Z,24.75
2022-12-11T12:13:23.887Z,28.95
2022-12-11T12:15:59.448Z,34.28
2022-12-11T12:18:52.469Z,32.97
2022-12-11T12:21:32.411Z,35.47
2022-12-11T12:24:29.419Z,35.92
2022-12-11T12:27:50.595Z,24.25
2022-12-11T12:30:16.123Z,27.65
2022-12-11T12:33:08.012Z,29.67
2022-12-11T12:35:38.283Z,18.02
2022-12-11T12:38:48.181Z,20.35
2022-12-11T12:41:34.275Z,32.33
2022-12-11T12:44:22.181Z,19.48
2022-12-11T12:47:10.133Z,28.08
2022-12-11T12:49:41.306Z,30.63
2022-12-11T12:52:24.714Z,36.00
2022-12-11T12:55:15.250Z,29.85
2022-12-11T12:57:47.727Z,30.60
2022-12-11T13:00:37.646Z,28.15
2022-12-11T13:03:32.789Z,33.85
2022-12-11T13:06:09.900Z,29.85
2022-12-11T13:08:50.979Z,33.50
2022-12-11T13:11:21.333Z,22.05
2022-12-11T13:14:10.672Z,22.33
2022-12-11T13:16:44.420Z,30.25
2022-12-11T13:19:31.076Z,31.23
2022-12-11T13:22:15.127Z,40.65
2022-12-11T13:24:56.009Z,36.70
2022-12-11T13:27:26.996Z,69.97
2022-12-11T13:30:16.404Z,28.25
2022-12-11T13:33:09.424Z,28.20
2022-12-11T13:35:37.697Z,43.65
2022-12-11T13:38:18.127Z,24.83
2022-12-11T13:40:53.746Z,27.88
2022-12-11T13:43:30.528Z,23.20
2022-12-11T13:46:03.061Z,25.33
2022-12-11T13:48:38.762Z,31.98
2022-12-11T13:51:07.003Z,41.65
2022-12-11T13:53:35.387Z,19.73
2022-12-11T13:56:06.356Z,29.40
2022-12-11T13:58:38.507Z,29.30
2022-12-11T14:01:18.006Z,32.22
2022-12-11T14:03:56.848Z,31.23
2022-12-11T14:06:26.131Z,32.13
2022-12-11T14:08:56.576Z,36.13
2022-12-11T14:11:29.826Z,29.27
2022-12-11T14:14:00.438Z,31.13
2022-12-11T14:16:29.209Z,35.67
2022-12-11T14:19:04.504Z,34.75
2022-12-11T14:21:32.395Z,38.95
2022-12-11T14:24:06.820Z,39.08
2022-12-11T14:26:38.716Z,39.28
2022-12-11T14:29:07.357Z,26.27
2022-12-11T14:31:42.102Z,31.73
2022-12-11T14:34:18.497Z,34.15
2022-12-11T14:36:47.278Z,32.45
2022-12-11T14:39:23.060Z,46.67
2022-12-11T14:41:54.404Z,33.67
2022-12-11T14:44:24.766Z,27.65
2022-12-11T14:46:58.051Z,39.35
2022-12-11T14:49:48.308Z,36.00
2022-12-11T14:52:20.235Z,44.13
2022-12-11T14:54:53.765Z,39.40
2022-12-11T14:57:27.305Z,38.88
2022-12-11T14:59:57.031Z,33.13
2022-12-11T15:02:28.379Z,37.08
2022-12-11T15:05:20.283Z,27.27
2022-12-11T15:07:56.899Z,31.85
2022-12-11T15:10:57.534Z,36.30
2022-12-11T15:13:25.363Z,38.97
2022-12-11T15:15:55.441Z,46.42
2022-12-11T15:18:31.431Z,38.42
2022-12-11T15:21:09.919Z,36.10
2022-12-11T15:23:58.600Z,35.85
2022-12-11T15:26:38.157Z,28.05
2022-12-11T15:29:23.387Z,30.05
2022-12-11T15:32:14.164Z,22.67
2022-12-11T15:34:50.409Z,34.15
2022-12-11T15:37:27.456Z,31.42
2022-12-11T15:39:57.740Z,25.27
2022-12-11T15:42:39.249Z,30.27
2022-12-11T15:45:11.866Z,27.65
2022-12-11T15:47:40.495Z,22.42
2022-12-11T15:50:16.370Z,23.60
2022-12-11T15:52:45.763Z,28.25
2022-12-11T15:55:14.501Z,26.80
2022-12-11T15:57:48.285Z,23.77
2022-12-11T16:00:18.901Z,22.88
2022-12-11T16:02:47.567Z,29.15
2022-12-11T16:05:16.739Z,28.15
2022-12-11T16:07:45.520Z,29.08
2022-12-11T16:10:17.501Z,27.83
2022-12-11T16:12:46.227Z,30.35
2022-12-11T16:15:22.880Z,33.83
2022-12-11T16:18:03.341Z,33.60
2022-12-11T16:20:32.044Z,33.13
2022-12-11T16:23:00.810Z,32.63
2022-12-11T16:25:28.783Z,27.30
2022-12-11T16:27:59.224Z,33.88
2022-12-11T16:30:28.421Z,31.90
2022-12-11T16:32:57.049Z,29.67
2022-12-11T16:35:25.175Z,30.58
2022-12-11T16:37:54.040Z,34.25
2022-12-11T16:40:23.584Z,41.13
2022-12-11T16:42:52.407Z,36.60
2022-12-11T16:45:22.989Z,38.60
2022-12-11T16:47:51.259Z,37.72
2022-12-11T16:50:19.783Z,31.58
2022-12-11T16:52:48.433Z,32.05
2022-12-11T16:55:16.408Z,33.13
2022-12-11T16:57:44.742Z,31.50
2022-12-11T17:00:13.343Z,35.50
2022-12-11T17:02:41.860Z,34.83
2022-12-11T17:05:10.441Z,38.08
2022-12-11T17:07:41.469Z,34.10
2022-12-11T17:10:10.361Z,38.85
2022-12-11T17:12:39.244Z,33.45
2022-12-11T17:15:07.917Z,34.22
2022-12-11T17:17:36.513Z,42.95
2022-12-11T17:20:05.279Z,39.72
2022-12-11T17:22:33.933Z,38.63
2022-12-11T17:25:01.901Z,34.25
2022-12-11T17:27:30.632Z,30.23
2022-12-11T17:29:58.934Z,35.53
2022-12-11T17:32:27.071Z,35.88
2022-12-11T17:34:55.410Z,29.85
2022-12-11T17:37:23.835Z,30.70
2022-12-11T17:39:52.133Z,29.58
2022-12-11T17:42:20.535Z,40.10
2022-12-11T17:44:48.281Z,34.00
2022-12-11T17:47:16.187Z,36.17
2022-12-11T17:49:44.254Z,28.77
2022-12-11T17:52:12.907Z,36.58
2022-12-11T17:54:40.841Z,36.90
2022-12-11T17:57:09.391Z,30.63
2022-12-11T17:59:37.265Z,54.03
2022-12-11T18:02:05.192Z,110.00
2022-12-11T18:04:33.258Z,66.20
2022-12-11T18:07:01.510Z,29.90
2022-12-11T18:09:30.718Z,40.40
2022-12-11T18:11:59.807Z,31.00
2022-12-11T18:14:28.581Z,44.00
2022-12-11T18:16:56.575Z,44.05
2022-12-11T18:19:25.745Z,45.50
2022-12-11T18:21:55.080Z,48.22
2022-12-11T18:24:26.371Z,42.63
2022-12-11T18:26:55.014Z,44.78
2022-12-11T18:29:22.928Z,41.83
2022-12-11T18:31:51.659Z,37.63
2022-12-11T18:34:19.560Z,39.70
2022-12-11T18:36:48.080Z,38.20
2022-12-11T18:39:16.088Z,38.08
2022-12-11T18:41:50.215Z,40.85
2022-12-11T18:44:26.188Z,39.78
2022-12-11T18:46:54.748Z,37.88
2022-12-11T18:49:23.366Z,42.17
2022-12-11T18:51:51.214Z,44.22
2022-12-11T18:54:19.317Z,43.95
2022-12-11T18:56:47.512Z,47.88
2022-12-11T18:59:15.502Z,44.47
2022-12-11T19:01:44.105Z,50.47
2022-12-11T19:04:12.191Z,57.88
2022-12-11T19:06:40.547Z,58.85
2022-12-11T19:09:09.188Z,48.45
2022-12-11T19:11:40.646Z,40.03
2022-12-11T19:14:10.024Z,44.90
2022-12-11T19:16:42.045Z,39.15
2022-12-11T19:19:14.499Z,45.85
2022-12-11T19:24:15.117Z,38.63
2022-12-11T19:26:44.801Z,42.40
2022-12-11T19:29:21.150Z,40.33
2022-12-11T19:31:49.621Z,43.17
2022-12-11T19:34:18.036Z,44.33
2022-12-11T19:36:46.516Z,43.28
2022-12-11T19:39:15.154Z,40.67
2022-12-11T19:41:43.845Z,42.13
2022-12-11T19:44:12.537Z,40.97
2022-12-11T19:46:41.109Z,38.40
2022-12-11T19:49:11.624Z,36.97
2022-12-11T19:51:41.463Z,40.35
2022-12-11T19:54:13.251Z,46.80
2022-12-11T19:56:41.788Z,36.08
2022-12-11T19:59:14.415Z,39.35
2022-12-11T20:01:44.240Z,43.78
2022-12-11T20:04:14.837Z,38.30
2022-12-11T20:06:45.393Z,38.90
2022-12-11T20:09:15.098Z,44.42
2022-12-11T20:11:45.481Z,33.60
2022-12-11T20:14:23.683Z,38.08
2022-12-11T20:17:10.998Z,37.97
2022-12-11T20:19:42.783Z,39.78
2022-12-11T20:22:11.681Z,40.85
2022-12-11T20:24:40.029Z,38.90
2022-12-11T20:27:10.457Z,31.75
2022-12-11T20:29:39.232Z,36.17
2022-12-11T20:32:07.836Z,29.58
2022-12-11T20:34:36.071Z,28.45
2022-12-11T20:37:04.344Z,30.75
2022-12-11T20:39:32.699Z,25.27
2022-12-11T20:42:05.341Z,29.92
2022-12-11T20:44:33.485Z,27.98
2022-12-11T20:47:02.459Z,31.02
2022-12-11T20:49:30.661Z,30.38
2022-12-11T20:52:00.243Z,30.95
2022-12-11T20:54:28.140Z,31.58
2022-12-11T20:56:57.159Z,27.90
2022-12-11T20:59:26.406Z,35.22
2022-12-11T21:01:55.987Z,35.35
2022-12-11T21:04:24.562Z,39.08
2022-12-11T21:06:55.590Z,33.72
2022-12-11T21:09:26.857Z,33.10
2022-12-11T21:11:58.463Z,34.50
2022-12-11T21:14:26.500Z,30.30
2022-12-11T21:16:55.603Z,42.10
2022-12-11T21:19:24.170Z,34.63
2022-12-11T21:21:52.943Z,34.97
2022-12-11T21:24:26.556Z,33.55
2022-12-11T21:26:57.978Z,37.80
2022-12-11T21:29:27.455Z,33.90
2022-12-11T21:31:56.305Z,41.35
2022-12-11T21:34:25.778Z,40.03
2022-12-11T21:36:57.200Z,40.75
2022-12-11T21:39:26.820Z,39.17
2022-12-11T21:41:55.364Z,36.90
2022-12-11T21:47:11.428Z,51.22
2022-12-11T21:49:39.221Z,43.85
2022-12-11T21:52:08.864Z,45.25
2022-12-11T21:54:39.180Z,44.78
2022-12-11T21:57:06.900Z,44.58
2022-12-11T21:59:36.464Z,40.65
2022-12-11T22:02:04.770Z,39.67
2022-12-11T22:04:34.040Z,45.58
2022-12-11T22:07:01.742Z,44.60
2022-12-11T22:09:30.208Z,37.60
2022-12-11T22:11:59.018Z,42.20
2022-12-11T22:14:27.620Z,40.08
2022-12-11T22:16:55.793Z,40.40
2022-12-11T22:19:29.092Z,42.20
2022-12-11T22:21:59.989Z,39.05
2022-12-11T22:24:30.253Z,45.15
2022-12-11T22:26:59.990Z,41.25
2022-12-11T22:29:28.629Z,46.03
2022-12-11T22:31:56.846Z,44.22
2022-12-11T22:34:25.140Z,40.83
2022-12-11T22:36:53.250Z,38.53
2022-12-11T22:39:21.546Z,42.42
2022-12-11T22:41:49.588Z,40.40
2022-12-11T22:44:20.217Z,40.08
2022-12-11T22:46:50.686Z,47.15
2022-12-11T22:49:20.603Z,38.20
2022-12-11T22:51:50.033Z,36.30
2022-12-11T22:54:18.298Z,41.17
2022-12-11T22:56:46.265Z,43.55
2022-12-11T22:59:14.248Z,40.25
2022-12-11T23:01:42.554Z,38.55
2022-12-11T23:04:11.198Z,39.20
2022-12-11T23:06:39.140Z,36.33
2022-12-11T23:09:07.787Z,36.55
2022-12-11T23:11:38.030Z,41.40
2022-12-11T23:14:08.555Z,32.25
2022-12-11T23:16:37.256Z,40.50
2022-12-11T23:19:05.546Z,40.83
2022-12-11T23:21:34.125Z,38.05
2022-12-11T23:24:02.419Z,40.42
2022-12-11T23:26:31.074Z,37.38
2022-12-11T23:28:59.709Z,42.40
2022-12-11T23:31:28.368Z,45.35
2022-12-11T23:33:57.193Z,47.83
2022-12-11T23:36:26.609Z,45.00
2022-12-11T23:38:55.685Z,44.08
2022-12-11T23:41:24.106Z,40.15
2022-12-11T23:43:52.659Z,39.97
2022-12-11T23:46:23.184Z,44.60
2022-12-11T23:48:52.674Z,48.15
2022-12-11T23:51:23.216Z,39.35
2022-12-11T23:53:52.383Z,41.55
2022-12-11T23:56:26.033Z,39.35
2022-12-11T23:58:55.629Z,40.42
